createdAt,value
2019-05-30T00:00:45.905Z,60.41
2019-05-30T00:01:45.898Z,60.10
2019-05-30T00:02:45.888Z,59.89
2019-05-30T00:03:45.872Z,60.71
2019-05-30T00:04:45.872Z,60.61
2019-05-30T00:05:45.855Z,60.51
2019-05-30T00:06:45.846Z,60.33
2019-05-30T00:07:45.838Z,61.25
2019-05-30T00:08:45.819Z,61.25
2019-05-30T00:09:45.836Z,61.66
2019-05-30T00:10:45.797Z,61.46
2019-05-30T00:11:45.787Z,61.15
2019-05-30T00:12:45.781Z,61.46
2019-05-30T00:13:45.769Z,61.15
2019-05-30T00:14:45.769Z,61.76
2019-05-30T00:15:45.749Z,61.97
2019-05-30T00:16:45.740Z,62.07
2019-05-30T00:17:45.726Z,62.07
2019-05-30T00:18:45.714Z,62.17
2019-05-30T00:19:45.704Z,61.97
2019-05-30T00:20:45.724Z,62.27
2019-05-30T00:21:45.678Z,61.90
2019-05-30T00:22:45.672Z,62.40
2019-05-30T00:23:45.655Z,61.66
2019-05-30T00:24:45.650Z,62.61
2019-05-30T00:25:45.639Z,62.17
2019-05-30T00:26:45.649Z,61.79
2019-05-30T00:27:45.612Z,62.10
2019-05-30T00:28:45.602Z,61.99
2019-05-30T00:29:45.591Z,61.69
2019-05-30T00:30:45.578Z,61.99
2019-05-30T00:31:45.568Z,61.69
2019-05-30T00:32:45.570Z,62.10
2019-05-30T00:33:45.547Z,62.17
2019-05-30T00:34:45.535Z,61.90
2019-05-30T00:35:45.525Z,61.90
2019-05-30T00:36:45.540Z,62.54
2019-05-30T00:37:45.503Z,62.51
2019-05-30T00:38:45.542Z,61.99
2019-05-30T00:39:45.498Z,62.13
2019-05-30T00:40:45.473Z,61.99
2019-05-30T00:41:45.465Z,62.10
2019-05-30T00:42:45.460Z,62.20
2019-05-30T00:43:45.437Z,62.20
2019-05-30T00:44:45.425Z,62.51
2019-05-30T00:45:45.421Z,63.12
2019-05-30T00:46:45.409Z,62.81
2019-05-30T00:47:45.415Z,63.12
2019-05-30T00:48:45.386Z,62.20
2019-05-30T00:49:45.371Z,62.92
2019-05-30T00:50:45.366Z,62.71
2019-05-30T00:51:45.351Z,61.92
2019-05-30T00:52:45.346Z,62.74
2019-05-30T00:53:45.346Z,63.15
2019-05-30T00:54:45.325Z,62.95
2019-05-30T00:55:45.310Z,62.54
2019-05-30T00:56:45.302Z,63.25
2019-05-30T00:57:45.319Z,63.35
2019-05-30T00:58:45.278Z,63.25
2019-05-30T00:59:45.273Z,62.84
2019-05-30T01:00:45.256Z,63.25
2019-05-30T01:01:45.245Z,64.37
2019-05-30T01:02:45.257Z,64.51
2019-05-30T01:03:45.217Z,64.10
2019-05-30T01:04:45.234Z,64.40
2019-05-30T01:05:45.201Z,64.51
2019-05-30T01:06:45.189Z,64.81
2019-05-30T01:07:45.180Z,64.37
2019-05-30T01:08:45.171Z,64.51
2019-05-30T01:09:45.160Z,64.51
2019-05-30T01:10:45.148Z,64.81
2019-05-30T01:11:45.137Z,64.71
2019-05-30T01:12:45.118Z,64.92
2019-05-30T01:13:45.109Z,64.78
2019-05-30T01:14:45.097Z,64.81
2019-05-30T01:15:45.101Z,64.92
2019-05-30T01:16:45.077Z,64.81
2019-05-30T01:17:45.077Z,64.30
2019-05-30T01:18:45.059Z,64.30
2019-05-30T01:19:45.044Z,64.92
2019-05-30T01:20:45.044Z,64.27
2019-05-30T01:21:45.045Z,64.71
2019-05-30T01:22:45.014Z,64.61
2019-05-30T01:23:45.007Z,64.20
2019-05-30T01:24:44.988Z,63.89
2019-05-30T01:25:44.993Z,64.30
2019-05-30T01:26:44.973Z,64.10
2019-05-30T01:27:44.963Z,64.40
2019-05-30T01:28:44.945Z,64.30
2019-05-30T01:29:44.939Z,64.92
2019-05-30T01:30:58.952Z,64.81
2019-05-30T01:31:45.919Z,64.92
2019-05-30T01:32:44.907Z,65.12
2019-05-30T01:33:44.892Z,64.84
2019-05-30T01:34:44.899Z,64.40
2019-05-30T01:35:44.874Z,64.51
2019-05-30T01:36:44.878Z,64.51
2019-05-30T01:37:44.855Z,64.81
2019-05-30T01:38:44.841Z,64.92
2019-05-30T01:39:44.824Z,65.05
2019-05-30T01:40:44.815Z,64.74
2019-05-30T01:41:44.832Z,65.15
2019-05-30T01:42:44.792Z,64.84
2019-05-30T01:43:44.781Z,64.95
2019-05-30T01:44:44.776Z,64.84
2019-05-30T01:45:44.760Z,65.05
2019-05-30T01:46:44.812Z,64.95
2019-05-30T01:47:44.749Z,64.95
2019-05-30T01:48:44.733Z,65.66
2019-05-30T01:49:44.717Z,65.46
2019-05-30T01:50:44.711Z,65.39
2019-05-30T01:51:44.694Z,65.28
2019-05-30T01:52:44.713Z,65.05
2019-05-30T01:53:44.713Z,64.98
2019-05-30T01:54:44.666Z,65.59
2019-05-30T01:55:44.650Z,65.25
2019-05-30T01:56:44.645Z,65.39
2019-05-30T01:57:51.714Z,65.49
2019-05-30T01:58:44.631Z,65.08
2019-05-30T01:59:44.613Z,66.31
2019-05-30T02:00:44.607Z,66.00
2019-05-30T02:01:44.595Z,66.20
2019-05-30T02:02:44.582Z,66.31
2019-05-30T02:03:44.589Z,66.00
2019-05-30T02:04:44.558Z,65.90
2019-05-30T02:05:44.547Z,66.31
2019-05-30T02:06:44.533Z,66.20
2019-05-30T02:07:44.521Z,66.10
2019-05-30T02:08:44.570Z,66.41
2019-05-30T02:09:44.499Z,66.10
2019-05-30T02:10:44.497Z,66.20
2019-05-30T02:11:44.483Z,66.00
2019-05-30T02:12:44.467Z,66.41
2019-05-30T02:13:44.461Z,66.41
2019-05-30T02:14:44.453Z,66.54
2019-05-30T02:15:44.471Z,66.41
2019-05-30T02:16:44.434Z,65.93
2019-05-30T02:17:44.417Z,66.31
2019-05-30T02:18:44.401Z,66.13
2019-05-30T02:19:44.397Z,66.03
2019-05-30T02:20:44.383Z,66.10
2019-05-30T02:21:44.382Z,66.20
2019-05-30T02:22:44.361Z,66.31
2019-05-30T02:23:44.355Z,66.41
2019-05-30T02:24:44.340Z,66.61
2019-05-30T02:25:44.329Z,66.34
2019-05-30T02:26:44.324Z,66.24
2019-05-30T02:27:44.304Z,66.95
2019-05-30T02:28:44.293Z,66.51
2019-05-30T02:29:44.281Z,66.51
2019-05-30T02:30:44.300Z,66.72
2019-05-30T02:31:44.271Z,66.72
2019-05-30T02:32:44.262Z,66.85
2019-05-30T02:33:44.243Z,66.75
2019-05-30T02:34:44.228Z,66.64
2019-05-30T02:35:44.226Z,66.95
2019-05-30T02:36:44.234Z,66.75
2019-05-30T02:37:44.207Z,66.95
2019-05-30T02:38:44.205Z,66.75
2019-05-30T02:39:44.182Z,66.64
2019-05-30T02:40:44.160Z,66.34
2019-05-30T02:41:44.152Z,66.44
2019-05-30T02:42:44.147Z,66.54
2019-05-30T02:43:44.211Z,66.54
2019-05-30T02:44:44.117Z,66.13
2019-05-30T02:45:44.106Z,67.05
2019-05-30T02:46:44.107Z,67.05
2019-05-30T02:47:44.091Z,66.54
2019-05-30T02:48:58.473Z,66.54
2019-05-30T02:49:45.071Z,66.24
2019-05-30T02:50:44.064Z,67.19
2019-05-30T02:51:44.045Z,66.95
2019-05-30T02:52:44.031Z,66.03
2019-05-30T02:53:44.034Z,66.44
2019-05-30T02:54:44.008Z,66.85
2019-05-30T02:55:44.069Z,66.54
2019-05-30T02:56:43.990Z,66.34
2019-05-30T02:57:43.983Z,66.16
2019-05-30T02:58:43.973Z,66.88
2019-05-30T02:59:43.960Z,66.78
2019-05-30T03:00:43.953Z,67.08
2019-05-30T03:01:59.866Z,67.08
2019-05-30T03:02:44.919Z,67.08
2019-05-30T03:03:43.923Z,66.98
2019-05-30T03:04:43.908Z,67.08
2019-05-30T03:05:43.922Z,66.88
2019-05-30T03:06:43.879Z,66.27
2019-05-30T03:07:43.879Z,66.37
2019-05-30T03:08:43.853Z,66.88
2019-05-30T03:09:43.849Z,66.78
2019-05-30T03:10:43.865Z,66.37
2019-05-30T03:11:43.822Z,66.16
2019-05-30T03:12:43.833Z,67.08
2019-05-30T03:13:43.829Z,66.78
2019-05-30T03:14:43.793Z,66.88
2019-05-30T03:15:43.789Z,66.67
2019-05-30T03:16:43.768Z,66.88
2019-05-30T03:17:43.759Z,67.08
2019-05-30T03:18:43.745Z,66.57
2019-05-30T03:19:43.749Z,66.47
2019-05-30T03:20:43.723Z,66.37
2019-05-30T03:21:43.718Z,66.37
2019-05-30T03:22:43.701Z,67.19
2019-05-30T03:23:43.690Z,67.40
2019-05-30T03:24:43.713Z,66.98
2019-05-30T03:25:43.676Z,67.08
2019-05-30T03:26:43.665Z,67.19
2019-05-30T03:27:43.661Z,67.08
2019-05-30T03:28:43.654Z,67.29
2019-05-30T03:29:43.631Z,66.98
2019-05-30T03:30:43.629Z,66.98
2019-05-30T03:31:43.615Z,67.60
2019-05-30T03:33:06.733Z,67.19
2019-05-30T03:33:44.604Z,66.88
2019-05-30T03:34:43.572Z,67.40
2019-05-30T03:35:45.442Z,67.08
2019-05-30T03:36:43.555Z,66.88
2019-05-30T03:37:43.542Z,67.40
2019-05-30T03:38:43.530Z,66.88
2019-05-30T03:39:43.526Z,67.90
2019-05-30T03:40:43.518Z,67.32
2019-05-30T03:41:43.502Z,67.49
2019-05-30T03:42:43.488Z,67.08
2019-05-30T03:43:43.478Z,67.19
2019-05-30T03:44:43.475Z,67.19
2019-05-30T03:45:43.485Z,66.37
2019-05-30T03:46:43.452Z,66.37
2019-05-30T03:47:43.438Z,67.08
2019-05-30T03:48:43.425Z,67.08
2019-05-30T03:49:43.414Z,67.60
2019-05-30T03:50:43.394Z,67.19
2019-05-30T03:51:43.419Z,67.08
2019-05-30T03:52:43.381Z,66.88
2019-05-30T03:53:43.361Z,67.08
2019-05-30T03:54:43.365Z,66.98
2019-05-30T03:55:43.341Z,67.08
2019-05-30T03:56:43.328Z,66.98
2019-05-30T03:57:43.344Z,67.08
2019-05-30T03:58:43.312Z,67.08
2019-05-30T03:59:43.297Z,67.08
2019-05-30T04:00:43.294Z,67.49
2019-05-30T04:01:43.274Z,66.98
2019-05-30T04:02:56.536Z,66.98
2019-05-30T04:03:44.273Z,66.67
2019-05-30T04:04:43.250Z,66.30
2019-05-30T04:05:43.239Z,67.29
2019-05-30T04:06:43.228Z,66.91
2019-05-30T04:07:43.208Z,67.19
2019-05-30T04:08:43.202Z,66.98
2019-05-30T04:09:43.203Z,67.40
2019-05-30T04:10:43.177Z,67.19
2019-05-30T04:11:43.177Z,66.88
2019-05-30T04:12:43.161Z,67.29
2019-05-30T04:13:43.151Z,67.19
2019-05-30T04:14:43.145Z,66.98
2019-05-30T04:15:43.128Z,66.98
2019-05-30T04:16:43.133Z,66.98
2019-05-30T04:17:43.107Z,66.47
2019-05-30T04:18:43.100Z,66.67
2019-05-30T04:19:43.096Z,66.75
2019-05-30T04:20:43.073Z,66.13
2019-05-30T04:21:43.059Z,67.05
2019-05-30T04:22:43.052Z,67.05
2019-05-30T04:23:43.046Z,66.75
2019-05-30T04:24:43.025Z,66.75
2019-05-30T04:25:43.025Z,66.75
2019-05-30T04:26:43.011Z,66.85
2019-05-30T04:27:43.010Z,66.85
2019-05-30T04:28:42.984Z,66.44
2019-05-30T04:29:42.983Z,66.44
2019-05-30T04:30:42.966Z,66.95
2019-05-30T04:31:42.960Z,66.75
2019-05-30T04:32:42.947Z,66.72
2019-05-30T04:33:42.925Z,66.75
2019-05-30T04:34:42.915Z,66.75
2019-05-30T04:35:42.910Z,66.64
2019-05-30T04:36:42.934Z,66.85
2019-05-30T04:37:42.889Z,66.54
2019-05-30T04:38:42.879Z,65.90
2019-05-30T04:39:42.866Z,66.51
2019-05-30T04:40:42.854Z,66.31
2019-05-30T04:41:42.847Z,66.31
2019-05-30T04:42:42.843Z,66.20
2019-05-30T04:43:42.827Z,66.48
2019-05-30T04:44:42.810Z,65.97
2019-05-30T04:45:42.800Z,66.17
2019-05-30T04:46:42.793Z,66.38
2019-05-30T04:47:42.790Z,66.38
2019-05-30T04:48:42.769Z,66.17
2019-05-30T04:49:42.759Z,66.89
2019-05-30T04:50:42.747Z,66.38
2019-05-30T04:51:42.740Z,67.07
2019-05-30T04:52:42.755Z,67.27
2019-05-30T04:53:42.716Z,67.37
2019-05-30T04:54:42.698Z,67.50
2019-05-30T04:55:42.690Z,67.40
2019-05-30T04:56:42.680Z,66.38
2019-05-30T04:57:42.675Z,66.35
2019-05-30T04:58:43.070Z,67.47
2019-05-30T04:59:42.649Z,66.25
2019-05-30T05:00:42.637Z,67.37
2019-05-30T05:01:42.632Z,66.96
2019-05-30T05:02:42.614Z,66.21
2019-05-30T05:03:46.383Z,67.03
2019-05-30T05:04:42.604Z,67.13
2019-05-30T05:05:42.579Z,67.03
2019-05-30T05:06:42.567Z,66.42
2019-05-30T05:07:42.554Z,66.93
2019-05-30T05:08:42.576Z,66.62
2019-05-30T05:09:42.534Z,66.21
2019-05-30T05:10:42.525Z,65.98
2019-05-30T05:11:42.520Z,66.18
2019-05-30T05:12:42.502Z,66.18
2019-05-30T05:13:42.518Z,66.39
2019-05-30T05:14:42.480Z,65.98
2019-05-30T05:15:42.477Z,66.08
2019-05-30T05:16:42.464Z,65.37
2019-05-30T05:17:42.449Z,65.34
2019-05-30T05:18:42.441Z,65.23
2019-05-30T05:19:42.440Z,65.16
2019-05-30T05:20:42.420Z,64.52
2019-05-30T05:21:42.413Z,65.34
2019-05-30T05:22:42.400Z,64.62
2019-05-30T05:23:42.409Z,64.72
2019-05-30T05:24:42.376Z,64.83
2019-05-30T05:25:42.370Z,64.18
2019-05-30T05:26:42.355Z,64.18
2019-05-30T05:27:42.345Z,64.59
2019-05-30T05:28:42.334Z,63.57
2019-05-30T05:29:42.367Z,62.45
2019-05-30T05:30:42.315Z,62.73
2019-05-30T05:31:42.294Z,63.03
2019-05-30T05:32:42.292Z,63.54
2019-05-30T05:33:55.747Z,63.34
2019-05-30T05:34:43.276Z,62.52
2019-05-30T05:35:42.266Z,62.70
2019-05-30T05:36:42.255Z,63.00
2019-05-30T05:37:42.237Z,62.90
2019-05-30T05:38:42.223Z,62.59
2019-05-30T05:39:42.220Z,62.70
2019-05-30T05:40:42.204Z,62.77
2019-05-30T05:41:42.196Z,62.77
2019-05-30T05:42:42.180Z,62.36
2019-05-30T05:43:42.168Z,62.74
2019-05-30T05:44:42.162Z,62.54
2019-05-30T05:45:42.159Z,62.46
2019-05-30T05:46:42.138Z,62.23
2019-05-30T05:47:42.124Z,61.82
2019-05-30T05:48:42.109Z,62.23
2019-05-30T05:49:42.099Z,62.13
2019-05-30T05:50:42.102Z,61.49
2019-05-30T05:51:42.086Z,60.37
2019-05-30T05:52:42.069Z,59.96
2019-05-30T05:53:42.059Z,60.34
2019-05-30T05:54:42.041Z,60.03
2019-05-30T05:55:42.076Z,59.63
2019-05-30T05:56:42.028Z,59.01
2019-05-30T05:57:42.010Z,59.01
2019-05-30T05:58:42.006Z,58.61
2019-05-30T05:59:41.992Z,58.38
2019-05-30T06:00:41.987Z,58.69
2019-05-30T06:01:41.981Z,58.17
2019-05-30T06:02:41.965Z,58.07
2019-05-30T06:03:41.956Z,58.17
2019-05-30T06:04:41.940Z,58.15
2019-05-30T06:05:52.569Z,57.54
2019-05-30T06:06:42.915Z,58.15
2019-05-30T06:07:41.911Z,58.25
2019-05-30T06:08:41.901Z,58.56
2019-05-30T06:09:41.911Z,58.22
2019-05-30T06:10:41.868Z,58.25
2019-05-30T06:11:41.862Z,58.25
2019-05-30T06:12:41.852Z,59.75
2019-05-30T06:13:41.834Z,60.25
2019-05-30T06:14:41.843Z,61.34
2019-05-30T06:15:41.847Z,60.60
2019-05-30T06:16:41.804Z,57.66
2019-05-30T06:17:41.790Z,56.54
2019-05-30T06:18:41.787Z,56.24
2019-05-30T06:19:46.529Z,56.41
2019-05-30T06:20:42.766Z,56.52
2019-05-30T06:21:53.661Z,56.92
2019-05-30T06:22:42.733Z,55.91
2019-05-30T06:23:45.437Z,56.92
2019-05-30T06:24:41.719Z,57.81
2019-05-30T06:25:41.726Z,56.49
2019-05-30T06:26:41.692Z,55.68
2019-05-30T06:27:41.681Z,55.85
2019-05-30T06:28:41.669Z,56.46
2019-05-30T06:29:41.666Z,55.96
2019-05-30T06:30:41.673Z,55.63
2019-05-30T06:31:41.688Z,55.63
2019-05-30T06:32:41.644Z,55.22
2019-05-30T06:33:41.620Z,55.70
2019-05-30T06:34:41.683Z,54.89
2019-05-30T06:35:41.594Z,53.98
2019-05-30T06:36:41.599Z,53.98
2019-05-30T06:37:41.615Z,53.55
2019-05-30T06:38:41.568Z,53.85
2019-05-30T06:39:41.554Z,53.65
2019-05-30T06:40:41.547Z,55.17
2019-05-30T06:41:41.530Z,53.65
2019-05-30T06:42:49.587Z,52.21
2019-05-30T06:43:48.543Z,49.60
2019-05-30T06:44:41.498Z,51.81
2019-05-30T06:45:48.541Z,51.40
2019-05-30T06:46:41.479Z,51.09
2019-05-30T06:47:41.465Z,49.38
2019-05-30T06:48:49.049Z,49.76
2019-05-30T06:49:41.441Z,49.35
2019-05-30T06:50:41.442Z,48.74
2019-05-30T06:51:41.425Z,48.44
2019-05-30T06:52:49.085Z,49.33
2019-05-30T06:53:49.109Z,49.33
2019-05-30T06:54:41.384Z,46.83
2019-05-30T06:55:41.380Z,48.14
2019-05-30T06:56:44.610Z,49.27
2019-05-30T06:57:41.351Z,51.57
2019-05-30T06:58:48.462Z,50.74
2019-05-30T06:59:42.332Z,51.65
2019-05-30T07:00:41.318Z,50.12
2019-05-30T07:01:51.824Z,48.60
2019-05-30T07:02:49.186Z,49.08
2019-05-30T07:03:49.416Z,48.17
2019-05-30T07:04:52.209Z,48.96
2019-05-30T07:05:48.653Z,47.85
2019-05-30T07:06:49.067Z,46.03
2019-05-30T07:07:48.474Z,44.43
2019-05-30T07:08:49.892Z,45.85
2019-05-30T07:09:48.908Z,46.15
2019-05-30T07:10:41.213Z,48.37
2019-05-30T07:11:41.199Z,49.08
2019-05-30T07:12:41.209Z,48.85
2019-05-30T07:13:41.182Z,49.44
2019-05-30T07:14:41.174Z,49.64
2019-05-30T07:15:48.940Z,49.62
2019-05-30T07:16:48.978Z,48.08
2019-05-30T07:17:41.150Z,47.07
2019-05-30T07:18:41.127Z,45.76
2019-05-30T07:19:41.117Z,45.84
2019-05-30T07:20:41.102Z,44.23
2019-05-30T07:21:41.091Z,44.41
2019-05-30T07:22:41.088Z,43.62
2019-05-30T07:23:41.085Z,42.40
2019-05-30T07:24:41.059Z,43.62
2019-05-30T07:25:41.051Z,42.30
2019-05-30T07:26:41.035Z,41.49
2019-05-30T07:27:41.030Z,41.49
2019-05-30T07:28:41.026Z,41.39
2019-05-30T07:29:41.007Z,41.57
2019-05-30T07:30:41.000Z,41.67
2019-05-30T07:31:40.985Z,41.97
2019-05-30T07:32:40.971Z,41.35
2019-05-30T07:33:48.060Z,41.45
2019-05-30T07:34:48.561Z,40.84
2019-05-30T07:35:48.597Z,41.15
2019-05-30T07:36:48.622Z,40.64
2019-05-30T07:37:40.925Z,40.92
2019-05-30T07:38:48.674Z,40.22
2019-05-30T07:39:40.910Z,40.83
2019-05-30T07:40:40.907Z,40.92
2019-05-30T07:41:40.877Z,40.41
2019-05-30T07:42:40.868Z,41.01
2019-05-30T07:43:40.857Z,43.30
2019-05-30T07:44:40.854Z,43.40
2019-05-30T07:45:40.835Z,41.55
2019-05-30T07:46:40.832Z,36.25
2019-05-30T07:47:40.812Z,35.97
2019-05-30T07:48:40.801Z,38.88
2019-05-30T07:49:40.787Z,39.10
2019-05-30T07:50:40.798Z,38.90
2019-05-30T07:51:40.772Z,40.08
2019-05-30T07:52:40.760Z,38.88
2019-05-30T07:53:40.742Z,38.58
2019-05-30T07:54:40.738Z,39.66
2019-05-30T07:55:40.734Z,41.25
2019-05-30T07:56:40.713Z,41.43
2019-05-30T07:57:41.639Z,40.61
2019-05-30T07:58:48.701Z,40.41
2019-05-30T07:59:40.678Z,39.79
2019-05-30T08:00:40.695Z,35.98
2019-05-30T08:01:40.691Z,38.09
2019-05-30T08:02:40.654Z,34.17
2019-05-30T08:03:40.636Z,33.71
2019-05-30T08:04:40.627Z,37.22
2019-05-30T08:05:40.615Z,35.82
2019-05-30T08:06:40.616Z,37.90
2019-05-30T08:07:40.592Z,36.00
2019-05-30T08:08:40.591Z,37.08
2019-05-30T08:09:40.570Z,36.50
2019-05-30T08:10:40.560Z,35.60
2019-05-30T08:11:40.566Z,36.08
2019-05-30T08:12:40.547Z,36.46
2019-05-30T08:13:40.529Z,36.05
2019-05-30T08:14:40.523Z,35.13
2019-05-30T08:15:43.976Z,35.39
2019-05-30T08:16:40.533Z,34.30
2019-05-30T08:17:44.110Z,34.28
2019-05-30T08:18:40.475Z,34.18
2019-05-30T08:19:40.471Z,33.66
2019-05-30T08:20:40.462Z,31.98
2019-05-30T08:21:40.447Z,33.21
2019-05-30T08:22:40.447Z,33.21
2019-05-30T08:23:40.421Z,32.43
2019-05-30T08:24:40.424Z,34.05
2019-05-30T08:25:40.402Z,35.55
2019-05-30T08:26:40.394Z,34.83
2019-05-30T08:27:40.398Z,33.74
2019-05-30T08:28:42.579Z,35.38
2019-05-30T08:29:40.363Z,35.46
2019-05-30T08:30:40.355Z,35.93
2019-05-30T08:31:40.338Z,34.21
2019-05-30T08:32:40.368Z,34.38
2019-05-30T08:33:40.322Z,33.06
2019-05-30T08:34:40.311Z,31.75
2019-05-30T08:35:49.200Z,32.95
2019-05-30T08:36:41.282Z,30.54
2019-05-30T08:37:40.274Z,31.84
2019-05-30T08:38:40.298Z,32.14
2019-05-30T08:39:40.252Z,31.13
2019-05-30T08:40:40.247Z,32.26
2019-05-30T08:41:40.229Z,32.93
2019-05-30T08:42:40.452Z,31.73
2019-05-30T08:43:40.207Z,31.82
2019-05-30T08:44:40.238Z,31.62
2019-05-30T08:45:40.185Z,32.30
2019-05-30T08:46:40.183Z,31.77
2019-05-30T08:47:40.846Z,30.56
2019-05-30T08:48:40.413Z,29.39
2019-05-30T08:49:40.457Z,31.37
2019-05-30T08:50:43.155Z,28.88
2019-05-30T08:51:40.467Z,30.11
2019-05-30T08:52:40.908Z,30.01
2019-05-30T08:53:40.692Z,34.38
2019-05-30T08:54:40.573Z,34.94
2019-05-30T08:55:40.619Z,34.31
2019-05-30T08:56:40.686Z,33.00
2019-05-30T08:57:40.977Z,32.48
2019-05-30T08:58:40.906Z,31.38
2019-05-30T08:59:40.731Z,31.68
2019-05-30T09:00:40.057Z,31.17
2019-05-30T09:01:40.560Z,29.17
2019-05-30T09:02:40.970Z,29.75
2019-05-30T09:03:40.190Z,28.38
2019-05-30T09:04:39.991Z,29.30
2019-05-30T09:05:55.546Z,28.90
2019-05-30T09:06:41.813Z,30.39
2019-05-30T09:07:40.374Z,29.08
2019-05-30T09:08:40.119Z,31.85
2019-05-30T09:09:40.229Z,29.14
2019-05-30T09:10:40.846Z,29.34
2019-05-30T09:11:40.587Z,28.08
2019-05-30T09:12:42.195Z,27.89
2019-05-30T09:13:40.387Z,28.72
2019-05-30T09:14:41.159Z,30.63
2019-05-30T09:15:41.066Z,29.82
2019-05-30T09:16:39.861Z,30.21
2019-05-30T09:17:40.572Z,28.70
2019-05-30T09:18:41.492Z,31.18
2019-05-30T09:19:41.423Z,29.88
2019-05-30T09:20:41.369Z,30.76
2019-05-30T09:21:41.346Z,27.70
2019-05-30T09:22:39.924Z,28.01
2019-05-30T09:23:40.962Z,28.29
2019-05-30T09:24:40.455Z,29.17
2019-05-30T09:25:40.025Z,30.35
2019-05-30T09:26:44.169Z,27.28
2019-05-30T09:27:42.594Z,29.36
2019-05-30T09:28:40.702Z,29.34
2019-05-30T09:29:41.161Z,29.13
2019-05-30T09:30:41.154Z,27.32
2019-05-30T09:31:41.048Z,27.91
2019-05-30T09:32:41.175Z,26.35
2019-05-30T09:33:40.844Z,28.55
2019-05-30T09:34:41.210Z,27.36
2019-05-30T09:35:40.311Z,26.99
2019-05-30T09:36:40.900Z,27.88
2019-05-30T09:37:40.561Z,27.86
2019-05-30T09:38:40.535Z,27.19
2019-05-30T09:39:40.382Z,27.98
2019-05-30T09:40:40.813Z,28.08
2019-05-30T09:41:40.947Z,28.76
2019-05-30T09:42:41.226Z,27.95
2019-05-30T09:43:41.201Z,27.95
2019-05-30T09:44:40.995Z,26.86
2019-05-30T09:45:40.813Z,27.36
2019-05-30T09:46:40.827Z,28.23
2019-05-30T09:47:41.282Z,27.33
2019-05-30T09:48:40.199Z,28.61
2019-05-30T09:49:40.171Z,28.99
2019-05-30T09:50:41.984Z,25.72
2019-05-30T09:51:40.611Z,28.00
2019-05-30T09:52:41.655Z,27.00
2019-05-30T09:53:39.514Z,25.61
2019-05-30T09:54:39.471Z,26.68
2019-05-30T09:55:39.459Z,24.63
2019-05-30T09:56:39.455Z,26.61
2019-05-30T09:57:39.438Z,27.21
2019-05-30T09:58:39.429Z,26.61
2019-05-30T09:59:39.428Z,26.31
2019-05-30T10:00:39.420Z,25.90
2019-05-30T10:01:39.399Z,25.39
2019-05-30T10:02:39.392Z,26.07
2019-05-30T10:03:39.377Z,25.28
2019-05-30T10:04:39.374Z,25.37
2019-05-30T10:05:39.356Z,24.43
2019-05-30T10:06:39.351Z,24.44
2019-05-30T10:07:39.343Z,26.81
2019-05-30T10:08:39.332Z,25.43
2019-05-30T10:09:39.336Z,26.60
2019-05-30T10:10:39.311Z,27.29
2019-05-30T10:11:39.295Z,26.49
2019-05-30T10:12:39.287Z,27.87
2019-05-30T10:13:39.280Z,28.18
2019-05-30T10:14:39.273Z,28.35
2019-05-30T10:15:39.326Z,24.19
2019-05-30T10:16:39.259Z,26.67
2019-05-30T10:17:39.240Z,26.06
2019-05-30T10:18:39.232Z,26.06
2019-05-30T10:19:39.221Z,24.63
2019-05-30T10:20:39.230Z,25.52
2019-05-30T10:21:39.200Z,25.91
2019-05-30T10:22:39.185Z,25.49
2019-05-30T10:23:39.176Z,24.30
2019-05-30T10:24:42.906Z,25.49
2019-05-30T10:25:39.160Z,25.77
2019-05-30T10:26:39.159Z,24.48
2019-05-30T10:27:39.141Z,24.16
2019-05-30T10:28:39.135Z,25.54
2019-05-30T10:29:39.112Z,23.86
2019-05-30T10:30:39.108Z,23.49
2019-05-30T10:31:39.101Z,23.72
2019-05-30T10:32:39.090Z,25.82
2019-05-30T10:33:39.073Z,24.24
2019-05-30T10:34:39.065Z,25.21
2019-05-30T10:35:39.053Z,24.61
2019-05-30T10:36:44.153Z,24.10
2019-05-30T10:37:40.035Z,24.19
2019-05-30T10:38:39.020Z,24.28
2019-05-30T10:39:39.022Z,23.19
2019-05-30T10:40:39.002Z,23.82
2019-05-30T10:41:39.026Z,24.40
2019-05-30T10:42:38.986Z,26.26
2019-05-30T10:43:38.969Z,25.55
2019-05-30T10:44:38.963Z,23.49
2019-05-30T10:45:38.955Z,24.18
2019-05-30T10:46:38.944Z,23.81
2019-05-30T10:47:38.940Z,25.39
2019-05-30T10:48:38.916Z,24.19
2019-05-30T10:49:38.914Z,24.68
2019-05-30T10:50:38.903Z,23.43
2019-05-30T10:51:38.892Z,24.30
2019-05-30T10:52:38.890Z,23.99
2019-05-30T10:53:38.897Z,25.59
2019-05-30T10:54:38.862Z,25.57
2019-05-30T10:55:38.851Z,25.27
2019-05-30T10:56:38.836Z,23.76
2019-05-30T10:57:38.830Z,23.06
2019-05-30T10:58:38.824Z,22.89
2019-05-30T10:59:38.815Z,24.81
2019-05-30T11:00:38.795Z,24.90
2019-05-30T11:01:38.784Z,24.79
2019-05-30T11:02:38.777Z,24.27
2019-05-30T11:03:38.762Z,24.06
2019-05-30T11:04:38.761Z,23.26
2019-05-30T11:05:38.750Z,23.36
2019-05-30T11:06:38.738Z,23.54
2019-05-30T11:07:52.843Z,23.44
2019-05-30T11:08:39.716Z,23.43
2019-05-30T11:09:38.709Z,24.69
2019-05-30T11:10:38.702Z,24.29
2019-05-30T11:11:38.723Z,23.20
2019-05-30T11:12:38.679Z,22.42
2019-05-30T11:13:38.684Z,22.92
2019-05-30T11:14:38.670Z,21.53
2019-05-30T11:15:38.642Z,23.52
2019-05-30T11:16:38.634Z,24.60
2019-05-30T11:17:38.771Z,23.30
2019-05-30T11:18:38.617Z,23.08
2019-05-30T11:19:38.640Z,22.19
2019-05-30T11:20:38.598Z,23.37
2019-05-30T11:21:38.583Z,22.55
2019-05-30T11:22:38.588Z,21.45
2019-05-30T11:23:38.567Z,21.84
2019-05-30T11:24:38.554Z,20.95
2019-05-30T11:25:38.547Z,21.28
2019-05-30T11:26:38.542Z,23.05
2019-05-30T11:27:38.552Z,23.33
2019-05-30T11:28:38.518Z,23.21
2019-05-30T11:29:38.506Z,23.40
2019-05-30T11:30:38.500Z,21.81
2019-05-30T11:31:38.486Z,21.03
2019-05-30T11:32:38.472Z,21.42
2019-05-30T11:33:38.475Z,21.44
2019-05-30T11:34:38.455Z,21.87
2019-05-30T11:35:38.446Z,24.57
2019-05-30T11:36:38.430Z,24.38
2019-05-30T11:37:38.427Z,23.38
2019-05-30T11:38:38.437Z,23.91
2019-05-30T11:39:38.407Z,25.50
2019-05-30T11:40:38.394Z,25.48
2019-05-30T11:41:38.380Z,24.96
2019-05-30T11:42:38.376Z,24.35
2019-05-30T11:43:38.362Z,24.15
2019-05-30T11:44:38.359Z,22.95
2019-05-30T11:45:38.340Z,23.53
2019-05-30T11:46:38.336Z,22.44
2019-05-30T11:47:38.364Z,23.00
2019-05-30T11:48:38.322Z,22.01
2019-05-30T11:49:38.349Z,22.23
2019-05-30T11:50:38.291Z,21.84
2019-05-30T11:51:38.290Z,21.04
2019-05-30T11:52:38.271Z,21.66
2019-05-30T11:53:38.269Z,22.75
2019-05-30T11:54:38.253Z,22.25
2019-05-30T11:55:38.253Z,22.25
2019-05-30T11:56:38.241Z,21.86
2019-05-30T11:57:38.230Z,21.86
2019-05-30T11:58:38.216Z,22.55
2019-05-30T11:59:38.201Z,21.94
2019-05-30T12:00:38.236Z,21.92
2019-05-30T12:01:38.179Z,20.93
2019-05-30T12:02:38.172Z,22.41
2019-05-30T12:03:38.165Z,22.20
2019-05-30T12:04:38.159Z,20.73
2019-05-30T12:05:38.140Z,20.54
2019-05-30T12:06:38.137Z,21.72
2019-05-30T12:07:38.120Z,21.62
2019-05-30T12:08:38.109Z,21.04
2019-05-30T12:09:38.104Z,22.60
2019-05-30T12:10:38.095Z,21.14
2019-05-30T12:11:38.092Z,22.60
2019-05-30T12:12:38.076Z,20.72
2019-05-30T12:13:38.065Z,21.59
2019-05-30T12:14:38.051Z,20.41
2019-05-30T12:15:38.044Z,21.19
2019-05-30T12:16:38.087Z,21.30
2019-05-30T12:17:38.024Z,20.82
2019-05-30T12:18:38.010Z,21.15
2019-05-30T12:19:37.999Z,22.38
2019-05-30T12:20:37.989Z,22.19
2019-05-30T12:21:37.979Z,23.07
2019-05-30T12:22:38.015Z,24.26
2019-05-30T12:23:37.966Z,23.27
2019-05-30T12:24:37.955Z,21.98
2019-05-30T12:25:37.939Z,22.46
2019-05-30T12:26:37.929Z,23.93
2019-05-30T12:27:37.921Z,22.93
2019-05-30T12:28:37.923Z,24.19
2019-05-30T12:29:37.901Z,22.89
2019-05-30T12:30:37.899Z,21.15
2019-05-30T12:31:37.883Z,22.36
2019-05-30T12:32:37.886Z,21.28
2019-05-30T12:33:37.872Z,23.37
2019-05-30T12:34:37.851Z,22.42
2019-05-30T12:35:37.846Z,24.40
2019-05-30T12:36:37.829Z,23.61
2019-05-30T12:37:53.565Z,24.20
2019-05-30T12:39:47.885Z,23.98
2019-05-30T12:40:48.055Z,22.51
2019-05-30T12:41:47.619Z,23.39
2019-05-30T12:42:47.615Z,23.06
2019-05-30T12:43:47.628Z,22.86
2019-05-30T12:44:47.603Z,23.46
2019-05-30T12:45:47.582Z,23.15
2019-05-30T12:46:47.571Z,23.00
2019-05-30T12:47:47.567Z,24.18
2019-05-30T12:48:47.560Z,24.60
2019-05-30T12:49:47.533Z,24.15
2019-05-30T12:50:47.527Z,24.33
2019-05-30T12:51:47.513Z,26.20
2019-05-30T12:52:47.511Z,24.58
2019-05-30T12:53:47.720Z,24.26